Time;durP1;ratioP1;P1;durP2;ratioP2;P2;SDS_P1;SDS_P2;PMS_P1;PMS_P2;Temp;Humidity;BMP_temperature;BMP_pressure;BME280_temperature;BME280_humidity;BME280_pressure;Samples;Min_cycle;Max_cycle;Signal;HPM_P1;HPM_P2
2021/11/02 00:00:29;;;;;;;26.70;11.80;;;;;;;;;;5037982;28;20286;-76
2021/11/02 00:02:57;;;;;;;27.20;11.40;;;;;;;;;;5038280;28;20317;-75
2021/11/02 00:05:24;;;;;;;23.20;10.53;;;;;;;;;;5037045;28;20298;-76
2021/11/02 00:07:51;;;;;;;30.93;10.07;;;;;;;;;;5039343;28;20754;-75
2021/11/02 00:10:18;;;;;;;21.73;10.27;;;;;;;;;;5035836;28;20373;-76
2021/11/02 00:12:45;;;;;;;28.27;11.07;;;;;;;;;;5035955;28;20225;-75
2021/11/02 00:15:20;;;;;;;22.43;10.57;;;;;;;;;;5037535;28;20821;-76
2021/11/02 00:17:49;;;;;;;23.43;11.17;;;;;;;;;;5035893;28;20506;-76
2021/11/02 00:20:16;;;;;;;24.60;11.53;;;;;;;;;;5036886;28;20596;-76
2021/11/02 00:22:52;;;;;;;26.50;10.03;;;;;;;;;;5037270;28;20230;-75
2021/11/02 00:25:20;;;;;;;25.60;10.00;;;;;;;;;;5035512;28;20685;-75
2021/11/02 00:27:48;;;;;;;22.63;10.83;;;;;;;;;;5039458;28;20203;-76
2021/11/02 00:30:17;;;;;;;27.40;12.63;;;;;;;;;;5037137;28;20223;-76
2021/11/02 00:32:47;;;;;;;28.30;13.20;;;;;;;;;;5035783;28;20241;-75
2021/11/02 00:35:14;;;;;;;24.93;12.90;;;;;;;;;;5038149;28;20199;-76
2021/11/02 00:37:42;;;;;;;27.37;11.93;;;;;;;;;;5038056;28;20203;-75
2021/11/02 00:40:10;;;;;;;25.53;11.37;;;;;;;;;;5037534;28;20633;-75
2021/11/02 00:45:44;;;;;;;33.20;12.77;;;;;;;;;;5036610;28;20266;-75
2021/11/02 00:48:12;;;;;;;37.47;12.23;;;;;;;;;;5037181;28;20203;-75
2021/11/02 00:50:40;;;;;;;31.30;12.67;;;;;;;;;;5038884;28;20740;-76
2021/11/02 00:53:07;;;;;;;33.20;11.70;;;;;;;;;;5035586;28;20270;-75
2021/11/02 00:55:35;;;;;;;34.40;11.93;;;;;;;;;;5037821;28;20211;-75
2021/11/02 00:58:05;;;;;;;27.70;12.23;;;;;;;;;;5036548;28;20204;-76
2021/11/02 01:00:32;;;;;;;35.73;12.00;;;;;;;;;;5036925;28;20311;-75
2021/11/02 01:03:01;;;;;;;32.20;11.40;;;;;;;;;;5037209;28;20226;-75
2021/11/02 01:05:28;;;;;;;32.07;11.67;;;;;;;;;;5036591;28;20287;-75
2021/11/02 01:07:55;;;;;;;25.40;11.23;;;;;;;;;;5036649;28;20298;-75
2021/11/02 01:10:23;;;;;;;30.10;11.40;;;;;;;;;;5037089;28;20782;-75
2021/11/02 01:12:51;;;;;;;29.03;11.10;;;;;;;;;;5038186;28;20226;-75
2021/11/02 01:15:20;;;;;;;27.00;10.53;;;;;;;;;;5036696;28;20211;-75
2021/11/02 01:17:47;;;;;;;27.77;10.87;;;;;;;;;;5037672;28;20286;-76
2021/11/02 01:20:35;;;;;;;26.90;11.63;;;;;;;;;;5035427;28;21047;-76
2021/11/02 01:23:04;;;;;;;30.83;10.93;;;;;;;;;;5032403;28;20207;-75
2021/11/02 01:25:31;;;;;;;25.97;11.03;;;;;;;;;;5035478;28;20203;-75
2021/11/02 01:27:58;;;;;;;24.87;11.03;;;;;;;;;;5037809;28;20370;-76
2021/11/02 01:30:26;;;;;;;25.67;10.33;;;;;;;;;;5035857;28;20708;-75
2021/11/02 01:32:53;;;;;;;37.70;11.90;;;;;;;;;;5034800;28;20296;-75
2021/11/02 01:35:20;;;;;;;25.63;11.10;;;;;;;;;;5034662;28;20349;-75
2021/11/02 01:37:47;;;;;;;26.10;11.07;;;;;;;;;;5035343;28;20285;-75
2021/11/02 01:40:17;;;;;;;29.90;10.83;;;;;;;;;;5033489;28;20205;-75
2021/11/02 01:42:46;;;;;;;28.73;11.07;;;;;;;;;;5036275;28;20227;-75
2021/11/02 01:45:15;;;;;;;28.67;10.43;;;;;;;;;;5034057;28;20230;-76
2021/11/02 01:47:43;;;;;;;29.73;11.80;;;;;;;;;;5035095;28;20203;-75
2021/11/02 01:50:11;;;;;;;28.37;10.80;;;;;;;;;;5033810;28;20227;-75
2021/11/02 01:52:38;;;;;;;31.30;10.87;;;;;;;;;;5034335;28;20732;-75
2021/11/02 01:55:06;;;;;;;25.53;10.57;;;;;;;;;;5033989;28;20544;-75
2021/11/02 01:57:35;;;;;;;29.33;11.73;;;;;;;;;;5035773;28;20290;-75
2021/11/02 02:00:03;;;;;;;31.37;11.17;;;;;;;;;;5035951;28;20812;-76
2021/11/02 02:02:33;;;;;;;25.53;10.30;;;;;;;;;;5035215;28;20226;-76
2021/11/02 02:05:04;;;;;;;25.07;11.30;;;;;;;;;;5034105;28;20210;-76
2021/11/02 02:07:36;;;;;;;36.53;12.17;;;;;;;;;;5036229;28;20571;-76
2021/11/02 02:10:05;;;;;;;32.90;11.37;;;;;;;;;;5036642;28;20243;-76
2021/11/02 02:12:43;;;;;;;24.50;10.60;;;;;;;;;;5036124;28;20312;-75
2021/11/02 02:15:14;;;;;;;28.53;11.47;;;;;;;;;;5035430;28;20207;-76
2021/11/02 02:17:49;;;;;;;31.70;12.07;;;;;;;;;;5035171;28;22334;-77
2021/11/02 02:20:25;;;;;;;25.43;10.87;;;;;;;;;;5037457;28;20915;-76
2021/11/02 02:23:11;;;;;;;27.80;10.90;;;;;;;;;;5040017;28;20305;-75
2021/11/02 02:25:45;;;;;;;32.97;11.50;;;;;;;;;;5036375;28;20231;-76
2021/11/02 02:28:16;;;;;;;24.27;10.50;;;;;;;;;;5072498;22;20743;-76
2021/11/02 02:30:47;;;;;;;27.00;9.83;;;;;;;;;;5073738;28;20360;-78
2021/11/02 02:33:15;;;;;;;31.07;10.60;;;;;;;;;;5056289;28;20209;-76
2021/11/02 02:35:42;;;;;;;24.80;9.53;;;;;;;;;;5056225;28;20278;-78
2021/11/02 02:38:11;;;;;;;29.53;10.63;;;;;;;;;;5058090;28;20202;-75
2021/11/02 02:40:38;;;;;;;23.90;10.37;;;;;;;;;;5056124;28;20768;-75
2021/11/02 02:43:06;;;;;;;36.57;11.40;;;;;;;;;;5058736;28;20308;-76
2021/11/02 02:45:37;;;;;;;29.50;10.67;;;;;;;;;;5057069;28;20645;-76
2021/11/02 02:48:05;;;;;;;27.77;10.80;;;;;;;;;;5055138;28;20760;-76
2021/11/02 02:50:32;;;;;;;23.23;10.00;;;;;;;;;;5056973;28;20305;-75
2021/11/02 02:53:00;;;;;;;31.07;10.87;;;;;;;;;;5054387;28;21472;-76
2021/11/02 02:55:29;;;;;;;22.73;10.07;;;;;;;;;;5056369;28;20211;-78
2021/11/02 02:57:56;;;;;;;25.93;10.77;;;;;;;;;;5055379;28;20293;-76
2021/11/02 03:00:23;;;;;;;29.00;12.53;;;;;;;;;;5054715;28;20561;-76
2021/11/02 03:02:53;;;;;;;22.83;10.40;;;;;;;;;;5055500;28;20226;-78
2021/11/02 03:05:21;;;;;;;25.60;10.77;;;;;;;;;;5056646;28;21448;-76
2021/11/02 03:07:48;;;;;;;24.20;9.53;;;;;;;;;;5056090;28;20380;-77
2021/11/02 03:10:15;;;;;;;35.77;12.87;;;;;;;;;;5054232;28;20305;-76
2021/11/02 03:12:47;;;;;;;31.10;10.60;;;;;;;;;;5053606;28;20299;-75
2021/11/02 03:15:38;;;;;;;25.77;9.57;;;;;;;;;;5053954;28;20217;-76
2021/11/02 03:18:15;;;;;;;40.40;10.90;;;;;;;;;;5053047;28;20213;-75
2021/11/02 03:51:15;;;;;;;32.90;10.63;;;;;;;;;;5058520;28;20233;-76
2021/11/02 03:56:39;;;;;;;27.97;9.83;;;;;;;;;;5060738;28;20278;-76
2021/11/02 03:59:34;;;;;;;24.27;9.87;;;;;;;;;;5059306;28;20202;-76
2021/11/02 04:24:39;;;;;;;23.93;9.97;;;;;;;;;;5062664;28;20226;-76
2021/11/02 04:27:29;;;;;;;24.77;9.50;;;;;;;;;;5062675;28;20205;-75
2021/11/02 04:36:20;;;;;;;22.63;8.27;;;;;;;;;;4999130;28;20200;-76
2021/11/02 05:09:44;;;;;;;22.97;9.50;;;;;;;;;;5064855;28;20248;-75
2021/11/02 05:48:20;;;;;;;27.90;9.40;;;;;;;;;;5050985;28;20568;-75
2021/11/02 05:51:10;;;;;;;28.97;9.47;;;;;;;;;;5057396;28;20226;-77
2021/11/02 05:56:26;;;;;;;33.47;9.37;;;;;;;;;;5056324;28;20514;-77
2021/11/02 05:59:01;;;;;;;35.83;9.03;;;;;;;;;;5059725;28;20203;-75
2021/11/02 06:01:41;;;;;;;36.67;10.30;;;;;;;;;;5059372;28;20309;-76
2021/11/02 06:04:35;;;;;;;31.20;9.50;;;;;;;;;;5058809;28;20206;-76
2021/11/02 06:07:23;;;;;;;29.93;10.67;;;;;;;;;;5057817;28;20949;-76
2021/11/02 06:09:55;;;;;;;37.50;10.40;;;;;;;;;;5057706;28;20213;-76
2021/11/02 06:29:03;;;;;;;32.07;10.17;;;;;;;;;;5058216;28;20197;-76
2021/11/02 06:31:33;;;;;;;22.50;8.20;;;;;;;;;;5061641;28;20300;-74
2021/11/02 06:34:07;;;;;;;25.70;8.67;;;;;;;;;;5053308;28;20231;-75
2021/11/02 06:37:10;;;;;;;21.20;7.10;;;;;;;;;;5053823;28;20228;-76
2021/11/02 06:39:48;;;;;;;27.30;7.90;;;;;;;;;;5056654;28;20313;-75
2021/11/02 06:45:40;;;;;;;19.50;6.97;;;;;;;;;;4990906;28;20200;-75
2021/11/02 06:48:21;;;;;;;18.97;6.63;;;;;;;;;;4988987;28;20283;-75
2021/11/02 06:53:44;;;;;;;21.63;7.67;;;;;;;;;;5049829;28;20676;-75
2021/11/02 06:56:37;;;;;;;21.83;7.73;;;;;;;;;;5052294;28;20206;-75
2021/11/02 07:16:14;;;;;;;16.73;6.50;;;;;;;;;;5050528;28;21081;-74
2021/11/02 07:18:42;;;;;;;19.77;7.20;;;;;;;;;;5053586;28;20198;-75
2021/11/02 07:21:13;;;;;;;27.33;8.63;;;;;;;;;;5054454;28;20227;-75
2021/11/02 07:23:49;;;;;;;32.37;10.03;;;;;;;;;;5053619;28;20297;-75
2021/11/02 07:26:39;;;;;;;58.00;10.87;;;;;;;;;;5055274;28;20619;-74
2021/11/02 08:47:11;;;;;;;19.23;7.97;;;;;;;;;;5052780;28;20224;-75
2021/11/02 08:49:44;;;;;;;19.13;9.60;;;;;;;;;;5049940;28;20225;-76
2021/11/02 08:52:13;;;;;;;20.17;7.67;;;;;;;;;;5055543;28;20313;-76
2021/11/02 08:54:42;;;;;;;16.27;7.27;;;;;;;;;;5060978;28;20210;-78
2021/11/02 08:57:09;;;;;;;15.20;6.70;;;;;;;;;;5056376;28;20302;-77
2021/11/02 08:59:36;;;;;;;16.43;6.33;;;;;;;;;;5053346;28;20272;-76
2021/11/02 09:02:07;;;;;;;17.97;5.87;;;;;;;;;;5054220;28;20659;-78
2021/11/02 09:04:34;;;;;;;16.80;6.20;;;;;;;;;;5053091;28;20208;-76
2021/11/02 09:07:04;;;;;;;11.17;5.17;;;;;;;;;;5058296;28;20390;-76
2021/11/02 09:09:37;;;;;;;12.27;5.23;;;;;;;;;;5055088;28;20293;-76
2021/11/02 09:12:04;;;;;;;10.43;4.27;;;;;;;;;;5057371;28;20231;-78
2021/11/02 09:14:33;;;;;;;9.07;4.17;;;;;;;;;;5054992;28;20311;-77
2021/11/02 09:17:01;;;;;;;14.93;3.80;;;;;;;;;;5054422;28;20286;-76
2021/11/02 09:19:29;;;;;;;7.97;4.17;;;;;;;;;;5057081;28;20199;-76
2021/11/02 09:21:56;;;;;;;13.73;4.70;;;;;;;;;;5053670;28;20664;-76
2021/11/02 09:24:24;;;;;;;6.10;3.50;;;;;;;;;;5057307;28;20295;-75
2021/11/02 09:26:53;;;;;;;5.63;2.93;;;;;;;;;;5056905;28;20246;-77
2021/11/02 09:29:23;;;;;;;6.63;3.70;;;;;;;;;;5054965;28;20762;-76
2021/11/02 09:31:53;;;;;;;6.03;3.40;;;;;;;;;;5055291;28;20251;-77
2021/11/02 09:34:20;;;;;;;5.33;3.00;;;;;;;;;;5056615;28;20289;-77
2021/11/02 09:36:55;;;;;;;7.53;3.77;;;;;;;;;;5058087;28;20294;-78
2021/11/02 09:39:22;;;;;;;7.27;3.47;;;;;;;;;;5056625;28;20290;-76
2021/11/02 09:42:02;;;;;;;9.10;3.53;;;;;;;;;;5059673;28;20284;-75
2021/11/02 09:44:46;;;;;;;6.63;2.80;;;;;;;;;;5057626;28;20198;-76
2021/11/02 09:47:32;;;;;;;4.37;2.93;;;;;;;;;;5059087;28;20203;-75
2021/11/02 09:50:14;;;;;;;5.07;2.27;;;;;;;;;;5052605;28;20281;-76
2021/11/02 09:52:54;;;;;;;4.00;2.80;;;;;;;;;;5055189;28;20218;-75
2021/11/02 09:55:34;;;;;;;4.53;2.27;;;;;;;;;;5042960;28;20206;-76
2021/11/02 09:58:13;;;;;;;6.20;2.73;;;;;;;;;;5043627;28;20205;-77
2021/11/02 10:00:57;;;;;;;5.83;2.30;;;;;;;;;;5054297;28;20683;-77
2021/11/02 10:03:44;;;;;;;5.70;2.30;;;;;;;;;;5048923;28;20297;-77
2021/11/02 10:06:22;;;;;;;6.73;2.47;;;;;;;;;;5056641;28;20206;-76
2021/11/02 10:08:55;;;;;;;5.77;2.07;;;;;;;;;;5056756;28;20218;-76
2021/11/02 10:11:26;;;;;;;5.63;1.73;;;;;;;;;;5057160;28;20688;-76
2021/11/02 10:14:07;;;;;;;6.73;1.67;;;;;;;;;;5056541;28;20645;-76
2021/11/02 10:16:44;;;;;;;6.43;1.60;;;;;;;;;;5089262;28;20208;-76
2021/11/02 10:19:38;;;;;;;3.27;1.47;;;;;;;;;;5057654;28;20205;-75
2021/11/02 10:22:22;;;;;;;5.20;1.43;;;;;;;;;;5053105;28;20310;-76
2021/11/02 10:25:03;;;;;;;3.53;1.30;;;;;;;;;;5055344;28;20305;-76
2021/11/02 10:27:41;;;;;;;5.40;1.33;;;;;;;;;;5056198;28;20312;-76
2021/11/02 10:30:25;;;;;;;2.10;0.97;;;;;;;;;;5055361;28;20735;-76
2021/11/02 10:32:54;;;;;;;9.13;1.20;;;;;;;;;;5050432;28;20218;-75
2021/11/02 10:35:22;;;;;;;1.60;1.10;;;;;;;;;;5060456;28;20744;-76
2021/11/02 10:37:57;;;;;;;3.17;1.20;;;;;;;;;;5052644;28;20248;-76
2021/11/02 10:40:31;;;;;;;2.43;0.90;;;;;;;;;;5055904;28;20202;-76
2021/11/02 10:43:10;;;;;;;3.13;1.20;;;;;;;;;;5056398;28;20711;-75
2021/11/02 10:45:39;;;;;;;4.07;1.00;;;;;;;;;;5053738;28;20618;-75
2021/11/02 10:48:09;;;;;;;3.20;0.83;;;;;;;;;;5059225;28;20212;-77
2021/11/02 10:50:37;;;;;;;3.83;0.90;;;;;;;;;;5054263;28;20199;-76
2021/11/02 10:53:06;;;;;;;4.10;1.17;;;;;;;;;;5058835;28;20311;-76
2021/11/02 10:55:49;;;;;;;3.43;1.10;;;;;;;;;;5053874;28;20225;-75
2021/11/02 10:58:31;;;;;;;6.30;1.70;;;;;;;;;;5061554;28;20203;-75
2021/11/02 11:01:02;;;;;;;2.77;1.00;;;;;;;;;;5053360;28;20222;-75
2021/11/02 11:03:30;;;;;;;4.80;0.90;;;;;;;;;;5058521;28;20290;-77
2021/11/02 11:05:57;;;;;;;18.97;2.40;;;;;;;;;;5060069;28;20722;-76
2021/11/02 11:08:28;;;;;;;2.13;0.70;;;;;;;;;;5051988;28;20234;-77
2021/11/02 11:10:57;;;;;;;3.47;1.00;;;;;;;;;;5058971;28;20690;-76
2021/11/02 11:13:27;;;;;;;1.93;0.53;;;;;;;;;;5055715;28;20202;-77
2021/11/02 11:15:58;;;;;;;2.33;0.90;;;;;;;;;;5053902;28;20599;-77
2021/11/02 11:18:29;;;;;;;2.07;1.23;;;;;;;;;;5055373;28;20205;-76
2021/11/02 11:20:57;;;;;;;2.70;0.90;;;;;;;;;;5056856;28;20234;-77
2021/11/02 11:23:24;;;;;;;4.20;0.80;;;;;;;;;;5056073;28;20611;-76
2021/11/02 11:25:52;;;;;;;3.73;0.83;;;;;;;;;;5059886;28;20296;-76
2021/11/02 11:28:20;;;;;;;2.67;0.80;;;;;;;;;;5061685;28;20724;-77
2021/11/02 11:30:48;;;;;;;1.67;0.77;;;;;;;;;;5059423;28;20233;-76
2021/11/02 11:33:16;;;;;;;4.70;2.63;;;;;;;;;;5058409;28;20585;-76
2021/11/02 11:35:45;;;;;;;2.50;0.83;;;;;;;;;;5062372;28;20716;-76
2021/11/02 11:38:13;;;;;;;1.73;1.07;;;;;;;;;;5059565;28;20244;-75
2021/11/02 11:40:41;;;;;;;2.50;1.10;;;;;;;;;;5063519;28;20203;-76
2021/11/02 11:43:09;;;;;;;3.97;1.03;;;;;;;;;;5059578;28;20281;-76
2021/11/02 11:45:37;;;;;;;4.10;1.13;;;;;;;;;;5054869;28;20302;-75
2021/11/02 11:48:06;;;;;;;2.03;0.70;;;;;;;;;;5062775;28;20289;-76
2021/11/02 11:50:33;;;;;;;8.03;1.87;;;;;;;;;;5060513;28;20285;-76
2021/11/02 11:53:03;;;;;;;3.97;1.10;;;;;;;;;;5058469;28;20341;-75
2021/11/02 11:55:31;;;;;;;5.27;1.37;;;;;;;;;;5056098;28;20214;-76
2021/11/02 11:58:02;;;;;;;9.53;1.10;;;;;;;;;;5060044;28;20297;-76
2021/11/02 12:00:29;;;;;;;2.13;0.73;;;;;;;;;;5056588;28;20719;-76
2021/11/02 12:03:00;;;;;;;1.47;0.77;;;;;;;;;;5062037;28;20215;-77
2021/11/02 12:05:28;;;;;;;4.83;1.00;;;;;;;;;;5061753;28;20731;-75
2021/11/02 12:08:08;;;;;;;2.20;0.87;;;;;;;;;;5057303;28;20290;-75
2021/11/02 12:10:37;;;;;;;2.93;0.90;;;;;;;;;;5058239;28;20217;-75
2021/11/02 12:13:05;;;;;;;3.33;0.77;;;;;;;;;;5056836;28;20255;-75
2021/11/02 12:15:39;;;;;;;3.70;1.00;;;;;;;;;;5062743;28;20298;-76
2021/11/02 12:18:08;;;;;;;2.43;1.00;;;;;;;;;;5057940;28;20202;-76
2021/11/02 12:20:37;;;;;;;4.17;1.10;;;;;;;;;;5058161;28;20234;-75
2021/11/02 12:23:15;;;;;;;2.53;0.70;;;;;;;;;;5057012;28;20293;-76
2021/11/02 12:25:50;;;;;;;3.53;0.90;;;;;;;;;;5058419;28;20206;-76
2021/11/02 12:28:25;;;;;;;3.37;1.10;;;;;;;;;;5054973;28;20240;-76
2021/11/02 12:30:52;;;;;;;10.70;4.37;;;;;;;;;;5058258;28;20767;-76
2021/11/02 12:33:25;;;;;;;7.17;2.17;;;;;;;;;;5058491;28;20226;-75
2021/11/02 12:35:54;;;;;;;4.47;2.57;;;;;;;;;;5053415;28;20214;-76
2021/11/02 12:38:29;;;;;;;3.27;1.40;;;;;;;;;;5062666;28;20726;-76
2021/11/02 12:40:58;;;;;;;4.53;1.70;;;;;;;;;;5059449;28;20704;-75
2021/11/02 12:43:26;;;;;;;5.47;1.63;;;;;;;;;;5066802;28;20285;-75
2021/11/02 12:45:53;;;;;;;2.97;1.53;;;;;;;;;;5056695;28;20241;-75
2021/11/02 12:48:21;;;;;;;11.43;4.73;;;;;;;;;;5058450;28;20202;-76
2021/11/02 12:50:50;;;;;;;6.23;2.40;;;;;;;;;;5061239;28;20226;-75
2021/11/02 12:53:17;;;;;;;3.57;2.47;;;;;;;;;;5055240;28;20763;-76
2021/11/02 12:55:45;;;;;;;5.60;2.60;;;;;;;;;;5057604;28;20639;-76
2021/11/02 12:58:18;;;;;;;4.90;2.33;;;;;;;;;;5064809;28;20210;-75
2021/11/02 13:00:50;;;;;;;4.10;1.90;;;;;;;;;;5060059;28;20202;-75
2021/11/02 13:03:23;;;;;;;50.77;24.10;;;;;;;;;;5056242;28;20285;-75
2021/11/02 13:05:58;;;;;;;5.27;2.07;;;;;;;;;;5063429;28;20198;-75
2021/11/02 13:08:33;;;;;;;6.07;1.40;;;;;;;;;;5061819;28;20632;-75
2021/11/02 13:11:08;;;;;;;2.07;1.30;;;;;;;;;;5063856;28;20255;-75
2021/11/02 13:13:56;;;;;;;1.97;1.30;;;;;;;;;;5063648;28;20218;-75
2021/11/02 13:16:24;;;;;;;3.73;1.70;;;;;;;;;;5066577;28;20198;-75
2021/11/02 13:18:51;;;;;;;3.80;1.20;;;;;;;;;;5060515;28;20282;-76
2021/11/02 13:21:23;;;;;;;3.63;1.70;;;;;;;;;;5056923;28;20605;-76
2021/11/02 13:23:54;;;;;;;5.10;1.77;;;;;;;;;;5060075;28;20320;-75
2021/11/02 13:26:22;;;;;;;3.03;1.57;;;;;;;;;;5057742;28;20206;-76
2021/11/02 13:28:51;;;;;;;3.83;1.83;;;;;;;;;;5059701;28;20715;-76
2021/11/02 13:31:28;;;;;;;2.57;1.47;;;;;;;;;;5062431;28;20317;-75
2021/11/02 13:33:59;;;;;;;2.90;1.60;;;;;;;;;;5058946;28;20221;-75
2021/11/02 13:36:26;;;;;;;3.17;1.40;;;;;;;;;;5058080;28;20205;-78
2021/11/02 13:38:59;;;;;;;2.47;1.30;;;;;;;;;;5055604;28;20198;-76
2021/11/02 13:41:27;;;;;;;1.60;1.00;;;;;;;;;;5058454;28;20259;-75
2021/11/02 13:43:56;;;;;;;2.20;1.17;;;;;;;;;;5059457;28;20285;-76
2021/11/02 13:46:25;;;;;;;2.83;1.93;;;;;;;;;;5059219;28;20667;-76
2021/11/02 13:48:54;;;;;;;4.53;2.90;;;;;;;;;;5060764;28;20230;-75
2021/11/02 13:51:21;;;;;;;6.83;4.93;;;;;;;;;;5060598;28;20331;-75
2021/11/02 13:53:51;;;;;;;3.17;1.60;;;;;;;;;;5052428;28;20232;-75
2021/11/02 13:56:20;;;;;;;2.93;1.80;;;;;;;;;;5056324;28;20225;-76
2021/11/02 13:58:47;;;;;;;6.30;2.60;;;;;;;;;;5055842;28;20295;-76
2021/11/02 14:01:18;;;;;;;8.10;4.43;;;;;;;;;;5057862;28;20317;-76
2021/11/02 14:03:48;;;;;;;3.30;1.50;;;;;;;;;;5056148;28;20712;-76
2021/11/02 14:06:17;;;;;;;3.33;1.10;;;;;;;;;;5061348;28;20202;-76
2021/11/02 14:08:45;;;;;;;4.53;1.47;;;;;;;;;;5061355;28;20208;-76
2021/11/02 14:11:21;;;;;;;2.90;1.03;;;;;;;;;;5057748;28;20310;-77
2021/11/02 14:13:49;;;;;;;2.37;1.10;;;;;;;;;;5054419;28;20225;-77
2021/11/02 14:16:28;;;;;;;1.90;0.90;;;;;;;;;;5052954;28;20195;-75
2021/11/02 14:18:55;;;;;;;10.53;4.10;;;;;;;;;;5055264;28;20734;-76
2021/11/02 14:21:37;;;;;;;4.23;1.30;;;;;;;;;;5062360;28;20303;-75
2021/11/02 14:24:05;;;;;;;2.77;1.10;;;;;;;;;;5060090;28;20281;-75
2021/11/02 14:29:05;;;;;;;4.47;1.50;;;;;;;;;;4973361;28;20308;-75
2021/11/02 14:31:52;;;;;;;4.80;2.60;;;;;;;;;;4977443;28;20805;-75
2021/11/02 14:34:38;;;;;;;1.93;0.70;;;;;;;;;;4977359;28;20225;-74
2021/11/02 14:37:12;;;;;;;1.20;0.77;;;;;;;;;;4969903;28;20304;-76
2021/11/02 14:39:54;;;;;;;3.00;0.77;;;;;;;;;;4974256;28;20208;-76
2021/11/02 14:42:35;;;;;;;3.07;1.07;;;;;;;;;;4978352;28;20308;-75
2021/11/02 14:45:03;;;;;;;3.83;0.57;;;;;;;;;;4980198;28;20639;-75
2021/11/02 14:47:35;;;;;;;1.93;0.80;;;;;;;;;;4978247;28;20292;-75
2021/11/02 14:50:03;;;;;;;3.00;0.63;;;;;;;;;;4973885;28;20580;-74
2021/11/02 14:52:36;;;;;;;2.70;0.60;;;;;;;;;;4972138;28;20229;-76
2021/11/02 14:55:05;;;;;;;2.03;0.70;;;;;;;;;;4976599;28;20201;-77
2021/11/02 14:57:37;;;;;;;1.63;0.67;;;;;;;;;;4980169;28;20213;-76
2021/11/02 15:00:07;;;;;;;1.83;0.83;;;;;;;;;;4975211;28;20206;-76
2021/11/02 15:02:36;;;;;;;2.93;1.50;;;;;;;;;;4978383;28;20252;-76
2021/11/02 15:05:06;;;;;;;19.93;10.20;;;;;;;;;;4983345;28;20198;-75
2021/11/02 15:07:34;;;;;;;26.97;13.30;;;;;;;;;;4968604;28;20200;-75
2021/11/02 15:10:04;;;;;;;56.67;30.00;;;;;;;;;;4975511;28;20616;-76
2021/11/02 15:12:32;;;;;;;25.13;11.83;;;;;;;;;;4983314;28;20261;-76
2021/11/02 15:15:00;;;;;;;19.57;10.20;;;;;;;;;;4975319;28;20705;-76
2021/11/02 15:17:27;;;;;;;4.73;2.97;;;;;;;;;;4984007;28;20628;-75
2021/11/02 15:19:56;;;;;;;9.67;4.50;;;;;;;;;;4980324;28;20232;-75
2021/11/02 15:22:24;;;;;;;4.03;1.93;;;;;;;;;;4973280;28;20227;-76
2021/11/02 15:24:54;;;;;;;5.97;2.60;;;;;;;;;;4974904;28;20282;-75
2021/11/02 15:27:22;;;;;;;6.90;4.30;;;;;;;;;;4978186;28;20308;-76
2021/11/02 15:29:50;;;;;;;4.07;2.07;;;;;;;;;;4978531;28;20655;-74
2021/11/02 15:32:21;;;;;;;7.40;5.63;;;;;;;;;;4971397;28;20719;-75
2021/11/02 15:34:49;;;;;;;7.03;3.60;;;;;;;;;;4963743;28;20296;-75
2021/11/02 15:37:19;;;;;;;4.83;2.07;;;;;;;;;;4971755;28;20206;-75
2021/11/02 15:39:47;;;;;;;3.33;2.23;;;;;;;;;;4980919;28;20291;-75
2021/11/02 15:42:22;;;;;;;2.03;0.70;;;;;;;;;;4984769;28;20237;-76
2021/11/02 15:44:50;;;;;;;0.90;0.60;;;;;;;;;;4982036;28;20311;-76
2021/11/02 15:47:17;;;;;;;3.43;0.90;;;;;;;;;;4974588;28;21236;-76
2021/11/02 15:49:46;;;;;;;1.23;0.70;;;;;;;;;;4982527;28;20299;-76
2021/11/02 15:52:13;;;;;;;2.97;1.07;;;;;;;;;;4976447;28;20227;-76
2021/11/02 15:54:47;;;;;;;1.53;1.00;;;;;;;;;;4981026;28;20328;-77
2021/11/02 15:57:14;;;;;;;3.53;1.20;;;;;;;;;;4976559;28;20193;-75
2021/11/02 15:59:41;;;;;;;8.37;1.50;;;;;;;;;;4974369;28;20338;-76
2021/11/02 16:02:09;;;;;;;4.83;1.40;;;;;;;;;;4963718;28;20224;-75
2021/11/02 16:04:36;;;;;;;10.50;1.80;;;;;;;;;;4968116;28;20228;-76
2021/11/02 16:07:05;;;;;;;3.23;1.30;;;;;;;;;;4970834;28;20205;-77
2021/11/02 16:09:50;;;;;;;3.50;1.87;;;;;;;;;;4973366;28;20201;-76
2021/11/02 16:12:19;;;;;;;6.00;1.80;;;;;;;;;;4979912;28;20766;-74
2021/11/02 16:14:50;;;;;;;3.83;2.00;;;;;;;;;;4974972;28;20445;-75
2021/11/02 16:17:18;;;;;;;8.47;2.70;;;;;;;;;;4972134;28;20299;-76
2021/11/02 16:19:48;;;;;;;6.43;2.60;;;;;;;;;;4972810;28;20231;-75
2021/11/02 16:22:15;;;;;;;5.47;2.07;;;;;;;;;;4973955;28;20217;-76
2021/11/02 16:24:43;;;;;;;3.40;1.00;;;;;;;;;;4979471;28;20663;-76
2021/11/02 16:27:22;;;;;;;6.53;1.40;;;;;;;;;;4981604;28;20226;-76
2021/11/02 16:29:50;;;;;;;2.40;1.20;;;;;;;;;;4970612;28;20204;-75
2021/11/02 16:32:21;;;;;;;9.50;2.03;;;;;;;;;;4976068;28;20224;-75
2021/11/02 16:34:48;;;;;;;3.13;1.70;;;;;;;;;;4965621;28;20241;-74
2021/11/02 16:37:28;;;;;;;4.30;1.40;;;;;;;;;;4968381;28;20322;-75
2021/11/02 16:40:10;;;;;;;5.10;1.40;;;;;;;;;;4976300;28;20693;-75
2021/11/02 16:42:39;;;;;;;5.37;1.50;;;;;;;;;;4977253;28;21212;-74
2021/11/02 16:45:11;;;;;;;7.33;2.00;;;;;;;;;;4978557;28;20212;-75
2021/11/02 16:47:38;;;;;;;3.80;1.93;;;;;;;;;;4983410;28;20288;-75
2021/11/02 16:50:06;;;;;;;6.40;3.50;;;;;;;;;;4985557;28;20308;-75
2021/11/02 16:52:37;;;;;;;5.27;2.07;;;;;;;;;;4985689;28;20303;-74
2021/11/02 16:55:14;;;;;;;3.23;1.97;;;;;;;;;;4988461;28;21294;-75
2021/11/02 16:57:43;;;;;;;6.10;1.90;;;;;;;;;;4978311;28;20412;-74
2021/11/02 17:00:11;;;;;;;3.83;1.67;;;;;;;;;;4971363;28;20256;-74
2021/11/02 17:02:39;;;;;;;6.07;1.60;;;;;;;;;;4977726;28;20303;-74
2021/11/02 17:05:09;;;;;;;2.97;1.60;;;;;;;;;;4975831;28;20233;-74
2021/11/02 17:07:37;;;;;;;6.67;2.73;;;;;;;;;;4981401;28;20197;-75
2021/11/02 17:10:29;;;;;;;9.17;2.00;;;;;;;;;;4982254;28;20356;-75
2021/11/02 17:12:59;;;;;;;5.53;1.70;;;;;;;;;;4980360;28;20224;-75
2021/11/02 17:15:27;;;;;;;5.77;1.80;;;;;;;;;;4977931;28;20201;-75
2021/11/02 17:17:55;;;;;;;6.17;2.20;;;;;;;;;;4973309;28;20287;-75
2021/11/02 17:20:23;;;;;;;8.33;2.77;;;;;;;;;;4975958;28;20220;-75
2021/11/02 17:22:50;;;;;;;23.43;8.40;;;;;;;;;;4971451;28;20392;-76
2021/11/02 17:25:19;;;;;;;27.83;13.07;;;;;;;;;;4973919;28;20197;-75
2021/11/02 17:27:46;;;;;;;19.40;9.70;;;;;;;;;;4971242;28;20304;-73
2021/11/02 17:30:22;;;;;;;13.27;5.97;;;;;;;;;;4970473;28;20299;-73
2021/11/02 17:32:49;;;;;;;6.90;4.10;;;;;;;;;;4969296;28;20307;-73
2021/11/02 17:35:18;;;;;;;4.67;2.70;;;;;;;;;;4976619;28;20229;-75
2021/11/02 17:37:46;;;;;;;5.93;2.77;;;;;;;;;;4973243;28;20737;-74
2021/11/02 17:40:14;;;;;;;4.90;2.63;;;;;;;;;;4968082;28;20220;-75
2021/11/02 17:42:43;;;;;;;6.20;3.07;;;;;;;;;;4968211;28;20227;-75
2021/11/02 17:45:11;;;;;;;7.30;3.57;;;;;;;;;;4971513;28;21453;-76
2021/11/02 17:47:41;;;;;;;7.23;2.90;;;;;;;;;;4974795;28;20201;-75
2021/11/02 17:50:09;;;;;;;6.10;2.73;;;;;;;;;;4967642;28;20654;-75
2021/11/02 17:52:36;;;;;;;5.43;2.73;;;;;;;;;;4963926;28;20227;-75
2021/11/02 17:55:04;;;;;;;8.47;3.40;;;;;;;;;;4964652;28;20367;-74
2021/11/02 17:57:31;;;;;;;7.80;2.90;;;;;;;;;;4969154;28;20260;-75
2021/11/02 17:59:59;;;;;;;9.13;3.07;;;;;;;;;;4968594;28;20311;-73
2021/11/02 18:02:28;;;;;;;10.70;3.40;;;;;;;;;;4962379;28;20312;-73
2021/11/02 18:04:58;;;;;;;9.93;3.33;;;;;;;;;;4972676;28;20291;-76
2021/11/02 18:07:26;;;;;;;5.67;2.87;;;;;;;;;;4973679;28;20830;-73
2021/11/02 18:09:54;;;;;;;10.33;5.00;;;;;;;;;;4972597;28;20976;-75
2021/11/02 18:12:22;;;;;;;17.43;6.57;;;;;;;;;;4964076;28;21020;-73
2021/11/02 18:14:49;;;;;;;17.00;7.00;;;;;;;;;;4970180;28;20326;-74
2021/11/02 18:17:18;;;;;;;11.83;5.00;;;;;;;;;;4974904;28;20339;-76
2021/11/02 18:19:46;;;;;;;6.73;3.47;;;;;;;;;;4971236;28;20258;-75
2021/11/02 18:22:15;;;;;;;8.07;3.83;;;;;;;;;;4975776;28;20300;-75
2021/11/02 18:24:43;;;;;;;8.40;3.30;;;;;;;;;;4971902;28;20205;-73
2021/11/02 18:27:11;;;;;;;4.77;2.80;;;;;;;;;;4963748;28;20632;-74
2021/11/02 18:29:38;;;;;;;6.00;2.80;;;;;;;;;;4972861;28;20267;-74
2021/11/02 18:32:06;;;;;;;5.17;2.87;;;;;;;;;;4974219;28;20315;-75
2021/11/02 18:34:34;;;;;;;6.60;3.13;;;;;;;;;;4972665;28;20312;-75
2021/11/02 18:37:01;;;;;;;8.17;3.13;;;;;;;;;;4972369;28;20221;-75
2021/11/02 18:39:31;;;;;;;8.97;3.40;;;;;;;;;;4967884;28;20205;-74
2021/11/02 18:41:58;;;;;;;5.33;3.13;;;;;;;;;;4973342;28;20737;-74
2021/11/02 18:44:26;;;;;;;8.07;4.73;;;;;;;;;;4975545;28;20211;-75
2021/11/02 18:46:53;;;;;;;7.53;4.10;;;;;;;;;;4975742;28;20285;-75
2021/11/02 18:49:22;;;;;;;10.03;5.57;;;;;;;;;;4976627;28;20295;-75
2021/11/02 18:51:50;;;;;;;12.17;6.53;;;;;;;;;;4972315;28;20229;-74
2021/11/02 18:54:17;;;;;;;18.03;5.80;;;;;;;;;;4979184;28;20263;-76
2021/11/02 18:56:47;;;;;;;8.20;4.27;;;;;;;;;;4977025;28;20307;-74
2021/11/02 18:59:15;;;;;;;6.23;3.83;;;;;;;;;;4976922;28;20202;-74
2021/11/02 19:01:44;;;;;;;9.53;4.10;;;;;;;;;;4974217;28;20324;-76
2021/11/02 19:04:11;;;;;;;13.63;5.70;;;;;;;;;;4970248;28;20213;-77
2021/11/02 19:06:39;;;;;;;14.17;7.03;;;;;;;;;;4967755;28;21073;-74
2021/11/02 19:09:07;;;;;;;12.87;7.73;;;;;;;;;;4967574;28;20212;-74
2021/11/02 19:11:35;;;;;;;11.53;5.93;;;;;;;;;;4969883;28;20344;-75